Time;durP1;ratioP1;P1;durP2;ratioP2;P2;SDS_P1;SDS_P2;PMS_P1;PMS_P2;Temp;Humidity;BMP_temperature;BMP_pressure;BME280_temperature;BME280_humidity;BME280_pressure;Samples;Min_cycle;Max_cycle;Signal;HPM_P1;HPM_P2
2022/05/18 00:00:31;;;;;;;4.77;3.37;;;;;;;;;;5029771;28;20229;-75
2022/05/18 00:02:59;;;;;;;3.53;3.13;;;;;;;;;;5029995;28;20658;-75
2022/05/18 00:05:25;;;;;;;4.97;3.40;;;;;;;;;;5027527;28;20553;-75
2022/05/18 00:07:52;;;;;;;3.93;3.10;;;;;;;;;;5024524;28;20202;-75
2022/05/18 00:10:18;;;;;;;3.73;3.20;;;;;;;;;;5029538;28;20249;-74
2022/05/18 00:12:45;;;;;;;4.37;3.23;;;;;;;;;;5031378;28;20167;-75
2022/05/18 00:15:11;;;;;;;5.17;3.40;;;;;;;;;;5025441;28;20183;-74
2022/05/18 00:17:37;;;;;;;3.43;3.10;;;;;;;;;;5017994;28;20202;-75
2022/05/18 00:20:04;;;;;;;5.77;3.63;;;;;;;;;;5025682;28;20554;-74
2022/05/18 00:22:30;;;;;;;5.43;3.10;;;;;;;;;;5028533;28;20666;-75
2022/05/18 00:24:56;;;;;;;5.50;3.30;;;;;;;;;;5021611;28;20265;-75
2022/05/18 00:27:22;;;;;;;3.70;3.20;;;;;;;;;;5033024;28;20190;-75
2022/05/18 00:29:49;;;;;;;5.07;3.10;;;;;;;;;;5028928;28;20206;-75
2022/05/18 00:32:15;;;;;;;5.00;2.77;;;;;;;;;;5031859;28;20185;-75
2022/05/18 00:34:41;;;;;;;4.30;3.30;;;;;;;;;;5024316;28;20183;-75
2022/05/18 00:37:07;;;;;;;3.83;3.00;;;;;;;;;;5031566;28;20175;-74
2022/05/18 00:39:33;;;;;;;4.73;3.37;;;;;;;;;;5025951;28;20577;-75
2022/05/18 00:41:59;;;;;;;6.43;3.10;;;;;;;;;;5030679;28;20200;-74
2022/05/18 00:44:25;;;;;;;3.43;3.07;;;;;;;;;;5032179;28;20248;-75
2022/05/18 00:46:52;;;;;;;4.73;3.10;;;;;;;;;;5020488;28;20184;-75
2022/05/18 00:49:18;;;;;;;3.50;2.90;;;;;;;;;;5025210;28;20741;-75
2022/05/18 00:51:47;;;;;;;4.50;2.97;;;;;;;;;;5031617;28;20646;-75
2022/05/18 00:54:25;;;;;;;5.53;3.00;;;;;;;;;;5021589;28;20181;-75
2022/05/18 00:56:55;;;;;;;4.90;3.10;;;;;;;;;;5025366;28;20221;-75
2022/05/18 00:59:27;;;;;;;3.97;3.13;;;;;;;;;;5034205;28;20217;-75
2022/05/18 01:01:55;;;;;;;5.13;3.37;;;;;;;;;;4988681;28;1037026;-75
2022/05/18 01:04:23;;;;;;;6.30;3.70;;;;;;;;;;5026407;28;20210;-75
2022/05/18 01:06:49;;;;;;;4.93;3.40;;;;;;;;;;5027127;28;20182;-75
2022/05/18 01:09:20;;;;;;;5.90;3.60;;;;;;;;;;5028411;28;20214;-75
2022/05/18 01:11:46;;;;;;;6.27;3.47;;;;;;;;;;5031703;28;20187;-75
2022/05/18 01:14:44;;;;;;;7.87;3.70;;;;;;;;;;5020967;28;20178;-75
2022/05/18 01:17:11;;;;;;;5.03;3.27;;;;;;;;;;5029370;28;20199;-75
2022/05/18 01:19:39;;;;;;;4.53;3.30;;;;;;;;;;5024046;28;20698;-75
2022/05/18 01:22:24;;;;;;;5.17;3.47;;;;;;;;;;5011236;28;20245;-75
2022/05/18 01:25:10;;;;;;;5.87;3.73;;;;;;;;;;5051418;28;20235;-75
2022/05/18 01:27:37;;;;;;;6.17;3.93;;;;;;;;;;5028056;28;20214;-75
2022/05/18 01:30:04;;;;;;;3.93;3.50;;;;;;;;;;5021058;28;20207;-75
2022/05/18 01:32:42;;;;;;;5.67;3.60;;;;;;;;;;5017363;28;20179;-75
2022/05/18 01:35:09;;;;;;;6.53;3.60;;;;;;;;;;5023266;28;20204;-75
2022/05/18 01:37:35;;;;;;;4.63;3.43;;;;;;;;;;5020974;28;20289;-75
2022/05/18 01:40:04;;;;;;;4.57;3.37;;;;;;;;;;5013026;28;20183;-75
2022/05/18 01:42:48;;;;;;;6.83;3.80;;;;;;;;;;5016435;28;20230;-75
2022/05/18 01:45:15;;;;;;;6.23;3.20;;;;;;;;;;5028644;28;20611;-75
2022/05/18 01:47:41;;;;;;;6.00;3.30;;;;;;;;;;5030879;28;20585;-75
2022/05/18 01:50:10;;;;;;;5.40;3.47;;;;;;;;;;5027182;28;20233;-75
2022/05/18 01:52:36;;;;;;;5.97;3.47;;;;;;;;;;5019919;28;20197;-75
2022/05/18 01:55:03;;;;;;;3.87;3.57;;;;;;;;;;5030617;28;20187;-75
2022/05/18 01:57:29;;;;;;;4.77;3.40;;;;;;;;;;5029276;28;20170;-75
2022/05/18 01:59:55;;;;;;;5.03;3.57;;;;;;;;;;5035268;28;20183;-75
2022/05/18 02:02:22;;;;;;;4.53;3.57;;;;;;;;;;5030071;28;20685;-75
2022/05/18 02:04:49;;;;;;;4.87;3.70;;;;;;;;;;5027385;28;20369;-74
2022/05/18 02:07:15;;;;;;;4.97;3.40;;;;;;;;;;5036269;28;20244;-75
2022/05/18 02:09:42;;;;;;;5.40;3.37;;;;;;;;;;5050341;28;20304;-74
2022/05/18 02:12:09;;;;;;;4.90;3.70;;;;;;;;;;5028917;28;20548;-76
2022/05/18 02:14:36;;;;;;;5.73;3.57;;;;;;;;;;5032446;28;20171;-74
2022/05/18 02:17:02;;;;;;;4.43;3.53;;;;;;;;;;5031466;28;20221;-75
2022/05/18 02:19:29;;;;;;;5.27;3.60;;;;;;;;;;5030424;28;20248;-75
2022/05/18 02:21:55;;;;;;;3.53;3.17;;;;;;;;;;5029066;28;20205;-76
2022/05/18 02:24:21;;;;;;;3.40;3.10;;;;;;;;;;5034773;28;20178;-75
2022/05/18 02:26:48;;;;;;;5.80;3.90;;;;;;;;;;5017015;28;20248;-75
2022/05/18 02:29:14;;;;;;;5.40;3.90;;;;;;;;;;5025561;28;20677;-75
2022/05/18 02:31:40;;;;;;;5.63;4.10;;;;;;;;;;5030706;28;20190;-75
2022/05/18 02:34:06;;;;;;;5.20;4.00;;;;;;;;;;5021580;28;20179;-74
2022/05/18 02:36:32;;;;;;;5.50;4.37;;;;;;;;;;5011420;28;20317;-75
2022/05/18 02:38:58;;;;;;;6.87;4.43;;;;;;;;;;5015344;28;20569;-74
2022/05/18 02:41:24;;;;;;;4.33;3.93;;;;;;;;;;5030285;28;20178;-75
2022/05/18 02:43:52;;;;;;;4.70;3.87;;;;;;;;;;5030813;28;20178;-74
2022/05/18 02:46:20;;;;;;;5.00;4.40;;;;;;;;;;5031020;28;20193;-75
2022/05/18 02:48:46;;;;;;;6.83;4.30;;;;;;;;;;5025938;28;20720;-75
2022/05/18 02:51:13;;;;;;;5.00;4.47;;;;;;;;;;5030627;28;20183;-75
2022/05/18 02:53:39;;;;;;;6.23;4.37;;;;;;;;;;5029816;28;20182;-75
2022/05/18 02:56:07;;;;;;;5.93;4.50;;;;;;;;;;5029735;28;20171;-75
2022/05/18 02:58:38;;;;;;;4.70;3.90;;;;;;;;;;5028852;28;20208;-75
2022/05/18 03:01:05;;;;;;;4.20;3.80;;;;;;;;;;5030679;28;20202;-75
2022/05/18 03:03:32;;;;;;;7.13;4.03;;;;;;;;;;5027409;28;20595;-75
2022/05/18 03:05:58;;;;;;;7.57;4.30;;;;;;;;;;5021723;28;20183;-75
2022/05/18 03:08:24;;;;;;;5.27;3.77;;;;;;;;;;5025894;28;20198;-74
2022/05/18 03:10:50;;;;;;;4.70;4.07;;;;;;;;;;5024561;28;20271;-75
2022/05/18 03:13:17;;;;;;;4.23;3.83;;;;;;;;;;5022508;28;20183;-74
2022/05/18 03:15:46;;;;;;;5.07;4.10;;;;;;;;;;5023820;28;20297;-75
2022/05/18 03:18:12;;;;;;;8.53;4.17;;;;;;;;;;5028759;28;20195;-75
2022/05/18 03:23:33;;;;;;;5.03;4.03;;;;;;;;;;5028613;28;20619;-75
2022/05/18 03:26:00;;;;;;;6.23;4.17;;;;;;;;;;5021408;28;20178;-75
2022/05/18 03:28:26;;;;;;;6.97;4.33;;;;;;;;;;5021697;28;20286;-76
2022/05/18 03:30:52;;;;;;;5.77;4.30;;;;;;;;;;5026074;28;20231;-74
2022/05/18 03:33:18;;;;;;;6.37;3.77;;;;;;;;;;5010742;28;20194;-74
2022/05/18 03:35:48;;;;;;;4.77;4.07;;;;;;;;;;5019340;28;20187;-74
2022/05/18 03:38:14;;;;;;;5.23;3.90;;;;;;;;;;5025880;28;20659;-75
2022/05/18 03:40:41;;;;;;;4.97;4.00;;;;;;;;;;5010178;28;20179;-74
2022/05/18 03:43:07;;;;;;;9.67;4.37;;;;;;;;;;5024693;28;20183;-74
2022/05/18 03:45:33;;;;;;;5.33;4.07;;;;;;;;;;5012214;28;20278;-75
2022/05/18 03:47:59;;;;;;;4.87;4.17;;;;;;;;;;5032309;28;20202;-75
2022/05/18 03:50:28;;;;;;;5.33;4.27;;;;;;;;;;5028750;28;20364;-74
2022/05/18 03:52:58;;;;;;;6.67;4.50;;;;;;;;;;5014884;28;20195;-75
2022/05/18 03:55:24;;;;;;;6.03;4.47;;;;;;;;;;5027146;28;20647;-74
2022/05/18 03:57:50;;;;;;;5.57;4.00;;;;;;;;;;5028461;28;20666;-75
2022/05/18 04:00:17;;;;;;;6.67;3.87;;;;;;;;;;5032125;28;20187;-75
2022/05/18 04:02:43;;;;;;;7.03;4.00;;;;;;;;;;5013716;28;20806;-75
2022/05/18 04:05:10;;;;;;;4.70;4.20;;;;;;;;;;5018319;28;20175;-75
2022/05/18 04:07:36;;;;;;;6.83;4.70;;;;;;;;;;5031947;28;20313;-75
2022/05/18 04:10:03;;;;;;;4.77;4.37;;;;;;;;;;5025954;28;20235;-74
2022/05/18 04:12:29;;;;;;;5.60;4.40;;;;;;;;;;5013519;28;20626;-74
2022/05/18 04:14:55;;;;;;;7.10;5.03;;;;;;;;;;5024210;28;20185;-75
2022/05/18 04:17:22;;;;;;;6.40;4.57;;;;;;;;;;5025079;28;20177;-75
2022/05/18 04:19:48;;;;;;;6.60;4.63;;;;;;;;;;5012409;28;20183;-74
2022/05/18 04:22:14;;;;;;;5.10;4.10;;;;;;;;;;5021890;28;20186;-76
2022/05/18 04:24:41;;;;;;;5.43;4.43;;;;;;;;;;5032505;28;20266;-77
2022/05/18 04:27:07;;;;;;;5.10;4.60;;;;;;;;;;5028727;28;20569;-77
2022/05/18 04:29:33;;;;;;;4.90;4.40;;;;;;;;;;5028836;28;20301;-76
2022/05/18 04:32:00;;;;;;;6.07;4.90;;;;;;;;;;5032859;28;20194;-76
2022/05/18 04:34:26;;;;;;;8.33;5.67;;;;;;;;;;5028663;28;20183;-76
2022/05/18 04:36:53;;;;;;;6.60;5.53;;;;;;;;;;5024718;28;20194;-76
2022/05/18 04:39:19;;;;;;;9.40;6.30;;;;;;;;;;5021648;28;20289;-76
2022/05/18 04:41:45;;;;;;;7.47;6.20;;;;;;;;;;5031296;28;20186;-76
2022/05/18 04:44:12;;;;;;;6.03;5.33;;;;;;;;;;5027706;28;20221;-75
2022/05/18 04:46:40;;;;;;;7.80;5.17;;;;;;;;;;5026289;28;20216;-76
2022/05/18 04:49:06;;;;;;;8.23;5.60;;;;;;;;;;5012428;28;20227;-76
2022/05/18 04:51:33;;;;;;;6.17;4.93;;;;;;;;;;5027687;28;20182;-78
2022/05/18 04:54:00;;;;;;;6.13;5.53;;;;;;;;;;5023876;28;20179;-76
2022/05/18 04:56:26;;;;;;;10.20;5.90;;;;;;;;;;5030927;28;20182;-76
2022/05/18 04:58:53;;;;;;;9.47;5.70;;;;;;;;;;5024966;28;20229;-76
2022/05/18 05:01:19;;;;;;;7.37;5.83;;;;;;;;;;5027317;28;20248;-76
2022/05/18 05:03:46;;;;;;;9.33;6.47;;;;;;;;;;5025065;28;20179;-76
2022/05/18 05:06:13;;;;;;;7.37;6.67;;;;;;;;;;5027506;28;20190;-76
2022/05/18 05:08:39;;;;;;;10.13;7.77;;;;;;;;;;5030583;28;20282;-76
2022/05/18 05:11:07;;;;;;;8.97;7.03;;;;;;;;;;5029743;28;20210;-76
2022/05/18 05:13:34;;;;;;;6.70;6.10;;;;;;;;;;5029941;28;20186;-76
2022/05/18 05:16:05;;;;;;;6.83;6.10;;;;;;;;;;5030214;28;20205;-76
2022/05/18 05:18:31;;;;;;;8.63;5.87;;;;;;;;;;5028454;28;20606;-76
2022/05/18 05:20:58;;;;;;;5.63;5.00;;;;;;;;;;5029791;28;20564;-76
2022/05/18 05:23:24;;;;;;;6.87;5.00;;;;;;;;;;5029315;28;20191;-76
2022/05/18 05:25:51;;;;;;;6.20;4.50;;;;;;;;;;5029996;28;20221;-76
2022/05/18 05:28:18;;;;;;;4.50;4.00;;;;;;;;;;5030231;28;20202;-76
2022/05/18 05:30:44;;;;;;;8.40;4.90;;;;;;;;;;5028085;28;20222;-75
2022/05/18 05:33:11;;;;;;;6.40;4.17;;;;;;;;;;5011234;28;20194;-75
2022/05/18 05:35:40;;;;;;;5.33;4.17;;;;;;;;;;5029709;28;20612;-76
2022/05/18 05:38:06;;;;;;;5.90;4.60;;;;;;;;;;5030707;28;20281;-76
2022/05/18 05:40:32;;;;;;;5.97;4.40;;;;;;;;;;5021031;28;20277;-75
2022/05/18 05:42:58;;;;;;;5.10;4.17;;;;;;;;;;5026858;28;20598;-74
2022/05/18 05:45:24;;;;;;;5.47;3.90;;;;;;;;;;5025671;28;20231;-74
2022/05/18 05:47:51;;;;;;;6.93;4.13;;;;;;;;;;5029862;28;20259;-74
2022/05/18 05:50:17;;;;;;;5.57;4.40;;;;;;;;;;5026654;28;20210;-76
2022/05/18 05:52:46;;;;;;;6.30;4.43;;;;;;;;;;5024125;28;20217;-76
2022/05/18 05:55:12;;;;;;;7.57;4.40;;;;;;;;;;5021779;28;20252;-76
2022/05/18 05:57:38;;;;;;;5.00;4.40;;;;;;;;;;5026990;28;20202;-77
2022/05/18 06:00:05;;;;;;;4.27;3.87;;;;;;;;;;5028475;28;20189;-77
2022/05/18 06:02:38;;;;;;;5.43;4.17;;;;;;;;;;5025490;28;20203;-77
2022/05/18 06:05:05;;;;;;;4.60;4.20;;;;;;;;;;5027944;28;20630;-78
2022/05/18 06:07:31;;;;;;;7.43;3.90;;;;;;;;;;5021567;28;20285;-77
2022/05/18 06:09:57;;;;;;;4.17;3.73;;;;;;;;;;5028470;28;20289;-78
2022/05/18 06:12:27;;;;;;;5.63;4.00;;;;;;;;;;5031560;28;20187;-78
2022/05/18 06:14:54;;;;;;;4.80;4.20;;;;;;;;;;5025350;28;20777;-77
2022/05/18 06:17:20;;;;;;;4.17;3.40;;;;;;;;;;5026338;28;20183;-80
2022/05/18 06:19:46;;;;;;;6.43;3.40;;;;;;;;;;5027388;28;20286;-76
2022/05/18 06:22:12;;;;;;;4.43;3.40;;;;;;;;;;5028852;28;20245;-79
2022/05/18 06:24:40;;;;;;;4.67;3.33;;;;;;;;;;5024994;28;20559;-77
2022/05/18 06:27:07;;;;;;;4.17;3.23;;;;;;;;;;5027213;28;20178;-77
2022/05/18 06:29:34;;;;;;;3.83;3.10;;;;;;;;;;5027324;28;20253;-77
2022/05/18 06:32:00;;;;;;;7.73;3.50;;;;;;;;;;5028450;28;20278;-77
2022/05/18 06:34:26;;;;;;;3.87;3.20;;;;;;;;;;5027773;28;20183;-77
2022/05/18 06:36:53;;;;;;;3.40;3.10;;;;;;;;;;5027000;28;20190;-76
2022/05/18 06:39:19;;;;;;;4.00;2.90;;;;;;;;;;5028928;28;20300;-76
2022/05/18 06:41:46;;;;;;;5.33;3.00;;;;;;;;;;5026489;28;20205;-76
2022/05/18 06:44:13;;;;;;;4.27;3.00;;;;;;;;;;5028535;28;20214;-77
2022/05/18 06:46:39;;;;;;;3.87;3.00;;;;;;;;;;5027165;28;20250;-77
2022/05/18 06:49:06;;;;;;;3.73;2.80;;;;;;;;;;5028153;28;20213;-77
2022/05/18 06:51:34;;;;;;;4.60;2.83;;;;;;;;;;5012260;28;20174;-77
2022/05/18 06:54:00;;;;;;;3.90;3.27;;;;;;;;;;5027390;28;20642;-79
2022/05/18 06:56:28;;;;;;;6.43;3.00;;;;;;;;;;5028490;28;20243;-74
2022/05/18 06:58:55;;;;;;;3.33;2.93;;;;;;;;;;5028012;28;20202;-75
2022/05/18 07:01:22;;;;;;;3.67;3.20;;;;;;;;;;5030601;28;20187;-74
2022/05/18 07:03:48;;;;;;;3.70;3.30;;;;;;;;;;5029846;28;20175;-74
2022/05/18 07:06:16;;;;;;;4.07;3.37;;;;;;;;;;5025080;28;20669;-75
2022/05/18 07:08:42;;;;;;;3.30;3.00;;;;;;;;;;5024263;28;20231;-75
2022/05/18 07:11:08;;;;;;;3.63;2.97;;;;;;;;;;5025959;28;20226;-75
2022/05/18 07:13:35;;;;;;;4.93;3.30;;;;;;;;;;5023376;28;20190;-75
2022/05/18 07:16:02;;;;;;;4.07;3.20;;;;;;;;;;5029822;28;20174;-75
2022/05/18 07:18:29;;;;;;;3.33;2.90;;;;;;;;;;5027580;28;20277;-75
2022/05/18 07:20:56;;;;;;;3.17;2.90;;;;;;;;;;5025401;28;20725;-75
2022/05/18 07:23:23;;;;;;;4.37;3.13;;;;;;;;;;5014475;28;20674;-75
2022/05/18 07:25:50;;;;;;;5.40;3.20;;;;;;;;;;5028661;28;20179;-75
2022/05/18 07:28:17;;;;;;;3.43;2.83;;;;;;;;;;5029543;28;20209;-75
2022/05/18 07:30:43;;;;;;;3.00;2.73;;;;;;;;;;5032687;28;20713;-75
2022/05/18 07:33:09;;;;;;;4.40;3.00;;;;;;;;;;5032989;28;20179;-75
2022/05/18 07:35:35;;;;;;;5.60;2.77;;;;;;;;;;5033338;28;20175;-75
2022/05/18 07:38:02;;;;;;;2.77;2.50;;;;;;;;;;5024053;28;20626;-75
2022/05/18 07:40:28;;;;;;;3.67;2.80;;;;;;;;;;5031417;28;20670;-75
2022/05/18 07:42:56;;;;;;;3.33;2.80;;;;;;;;;;5032166;28;20320;-75
2022/05/18 07:45:25;;;;;;;3.70;2.67;;;;;;;;;;5028653;28;20681;-75
2022/05/18 07:48:08;;;;;;;3.67;2.80;;;;;;;;;;5031742;28;20591;-75
2022/05/18 07:50:35;;;;;;;3.37;2.97;;;;;;;;;;5031111;28;20257;-75
2022/05/18 07:53:01;;;;;;;5.20;3.60;;;;;;;;;;5032011;28;20174;-75
2022/05/18 07:55:27;;;;;;;5.00;3.23;;;;;;;;;;5031401;28;21312;-75
2022/05/18 07:57:53;;;;;;;4.30;3.00;;;;;;;;;;5031618;28;20211;-75
2022/05/18 08:00:21;;;;;;;3.73;2.90;;;;;;;;;;5031514;28;20186;-75
2022/05/18 08:02:47;;;;;;;3.80;3.03;;;;;;;;;;5031338;28;20510;-76
2022/05/18 08:05:13;;;;;;;4.53;3.00;;;;;;;;;;5032479;28;20231;-76
2022/05/18 08:07:45;;;;;;;4.33;3.17;;;;;;;;;;5032316;28;20253;-75
2022/05/18 08:15:42;;;;;;;4.40;2.73;;;;;;;;;;5031480;28;20179;-75
2022/05/18 08:18:09;;;;;;;3.37;3.03;;;;;;;;;;5032045;28;20745;-75
2022/05/18 08:20:38;;;;;;;6.57;3.10;;;;;;;;;;5030773;28;20182;-75
2022/05/18 08:23:04;;;;;;;4.57;3.33;;;;;;;;;;5031348;28;20202;-75
2022/05/18 08:25:30;;;;;;;4.17;2.90;;;;;;;;;;5031877;28;20894;-75
2022/05/18 08:27:57;;;;;;;5.80;3.20;;;;;;;;;;5032040;28;20214;-75
2022/05/18 08:30:23;;;;;;;3.37;2.70;;;;;;;;;;5030665;28;20209;-75
2022/05/18 08:32:50;;;;;;;6.60;3.10;;;;;;;;;;5031496;28;20182;-75
2022/05/18 08:35:17;;;;;;;6.43;3.13;;;;;;;;;;5031184;28;20194;-75
2022/05/18 08:37:58;;;;;;;3.20;2.83;;;;;;;;;;5031337;28;20198;-75
2022/05/18 08:40:31;;;;;;;4.53;2.70;;;;;;;;;;5030451;28;20180;-75
2022/05/18 08:43:02;;;;;;;5.40;3.00;;;;;;;;;;5030305;28;20186;-75
2022/05/18 08:45:33;;;;;;;3.87;3.17;;;;;;;;;;5029902;28;20194;-76
2022/05/18 08:48:09;;;;;;;3.47;3.17;;;;;;;;;;5029016;28;20246;-75
2022/05/18 08:50:37;;;;;;;3.23;2.93;;;;;;;;;;5028923;28;20242;-75
2022/05/18 08:53:09;;;;;;;4.20;3.03;;;;;;;;;;5030811;28;20684;-75
2022/05/18 08:55:41;;;;;;;4.23;2.97;;;;;;;;;;5031107;28;20179;-75
2022/05/18 08:58:15;;;;;;;3.20;2.90;;;;;;;;;;5031246;28;20207;-75
2022/05/18 09:01:02;;;;;;;4.70;2.80;;;;;;;;;;5029391;28;20225;-75
2022/05/18 09:03:32;;;;;;;6.83;3.47;;;;;;;;;;5030925;28;20273;-75
2022/05/18 09:06:01;;;;;;;3.77;3.37;;;;;;;;;;5031140;28;20210;-75
2022/05/18 09:08:39;;;;;;;5.27;3.03;;;;;;;;;;5030599;28;20280;-76
2022/05/18 09:11:07;;;;;;;4.17;3.20;;;;;;;;;;5030651;28;20630;-76
2022/05/18 09:13:34;;;;;;;3.20;2.87;;;;;;;;;;5030909;28;20201;-74
2022/05/18 09:16:20;;;;;;;4.40;3.07;;;;;;;;;;5031014;28;20175;-75
2022/05/18 09:18:55;;;;;;;4.70;2.70;;;;;;;;;;5028741;28;20313;-76
2022/05/18 09:21:40;;;;;;;4.00;3.00;;;;;;;;;;5028754;28;20198;-75
2022/05/18 09:24:19;;;;;;;3.17;2.70;;;;;;;;;;5029331;28;20224;-75
2022/05/18 09:26:52;;;;;;;3.67;3.10;;;;;;;;;;5030375;28;20190;-75
2022/05/18 09:29:20;;;;;;;4.13;2.87;;;;;;;;;;5029993;28;20225;-75
2022/05/18 09:32:05;;;;;;;4.10;2.67;;;;;;;;;;5030007;28;20183;-75
2022/05/18 09:34:38;;;;;;;5.93;2.53;;;;;;;;;;5029975;28;20191;-75
2022/05/18 09:37:11;;;;;;;3.83;2.57;;;;;;;;;;5028962;28;20214;-76
2022/05/18 09:39:41;;;;;;;5.07;2.50;;;;;;;;;;5029601;28;20316;-75
2022/05/18 09:42:11;;;;;;;2.80;2.03;;;;;;;;;;5029733;28;20174;-75
2022/05/18 09:44:50;;;;;;;2.30;2.10;;;;;;;;;;5029513;28;20190;-76
2022/05/18 09:47:18;;;;;;;3.83;2.30;;;;;;;;;;5029809;28;20242;-76
2022/05/18 09:49:46;;;;;;;2.50;2.30;;;;;;;;;;5029008;28;20256;-75
2022/05/18 09:52:13;;;;;;;2.83;2.40;;;;;;;;;;5029685;28;20266;-75
2022/05/18 09:54:39;;;;;;;2.40;2.20;;;;;;;;;;5029299;28;20189;-75
2022/05/18 09:57:24;;;;;;;3.50;2.20;;;;;;;;;;5029439;28;20198;-75
2022/05/18 09:59:55;;;;;;;2.83;2.30;;;;;;;;;;5027567;28;20658;-75
2022/05/18 10:07:57;;;;;;;2.97;2.30;;;;;;;;;;5028990;28;21492;-75
2022/05/18 10:10:38;;;;;;;2.40;2.20;;;;;;;;;;5028006;28;20198;-75
2022/05/18 10:13:11;;;;;;;2.53;2.33;;;;;;;;;;5025945;28;20197;-75
2022/05/18 10:15:41;;;;;;;2.37;2.00;;;;;;;;;;5030322;28;20225;-78
2022/05/18 10:18:16;;;;;;;2.60;2.20;;;;;;;;;;5027212;28;20206;-76
2022/05/18 10:20:43;;;;;;;1.63;1.53;;;;;;;;;;5026152;28;20673;-75
2022/05/18 10:23:28;;;;;;;8.73;1.80;;;;;;;;;;5028571;28;20179;-75
2022/05/18 10:25:55;;;;;;;2.17;1.90;;;;;;;;;;5030162;28;20174;-75
2022/05/18 10:28:24;;;;;;;3.37;2.50;;;;;;;;;;5028799;28;20297;-75
2022/05/18 10:31:01;;;;;;;2.43;1.90;;;;;;;;;;5028602;28;20214;-75
2022/05/18 10:33:32;;;;;;;2.87;1.90;;;;;;;;;;5029047;28;20209;-75
2022/05/18 10:36:08;;;;;;;4.07;1.80;;;;;;;;;;5023282;28;20666;-75
2022/05/18 10:38:35;;;;;;;3.90;1.50;;;;;;;;;;5028017;28;20658;-78
2022/05/18 10:41:04;;;;;;;2.53;1.87;;;;;;;;;;5026248;28;20609;-76
2022/05/18 10:43:33;;;;;;;2.40;1.80;;;;;;;;;;5027797;28;20684;-76
2022/05/18 10:46:02;;;;;;;2.10;1.87;;;;;;;;;;5023308;28;20281;-76
2022/05/18 10:48:29;;;;;;;2.57;1.80;;;;;;;;;;5025813;28;20202;-76
2022/05/18 10:51:00;;;;;;;2.67;1.90;;;;;;;;;;5022723;28;20749;-76
2022/05/18 10:53:35;;;;;;;4.07;1.70;;;;;;;;;;5026207;28;20195;-76
2022/05/18 10:56:04;;;;;;;1.77;1.60;;;;;;;;;;5023073;28;20186;-76
2022/05/18 10:58:34;;;;;;;2.33;1.60;;;;;;;;;;5025618;28;20218;-76
2022/05/18 11:01:02;;;;;;;2.13;1.70;;;;;;;;;;5027327;28;20245;-76
2022/05/18 11:03:47;;;;;;;4.37;1.90;;;;;;;;;;5031128;28;20566;-76
2022/05/18 11:06:18;;;;;;;2.80;1.90;;;;;;;;;;5031185;28;20190;-76
2022/05/18 11:08:45;;;;;;;2.20;1.90;;;;;;;;;;5029031;28;20210;-76
2022/05/18 11:11:30;;;;;;;2.90;2.20;;;;;;;;;;5029998;28;20297;-76
2022/05/18 11:14:02;;;;;;;3.10;1.90;;;;;;;;;;5031381;28;20537;-76
2022/05/18 11:16:31;;;;;;;2.83;1.80;;;;;;;;;;5031779;28;20183;-76
2022/05/18 11:19:17;;;;;;;4.40;2.20;;;;;;;;;;5012016;28;20210;-76
2022/05/18 11:21:57;;;;;;;2.93;1.90;;;;;;;;;;5027760;28;20182;-76
2022/05/18 11:24:28;;;;;;;1.97;1.77;;;;;;;;;;5031690;28;20186;-76
2022/05/18 11:27:27;;;;;;;2.50;1.70;;;;;;;;;;5031983;28;20184;-76
2022/05/18 11:29:53;;;;;;;2.80;1.83;;;;;;;;;;5018185;28;20245;-76
2022/05/18 11:32:28;;;;;;;1.97;1.70;;;;;;;;;;5033073;28;20189;-76
2022/05/18 11:34:59;;;;;;;2.37;1.90;;;;;;;;;;5032935;28;20916;-76
2022/05/18 11:37:44;;;;;;;2.40;1.80;;;;;;;;;;5031284;28;20185;-76
2022/05/18 11:40:17;;;;;;;2.87;1.67;;;;;;;;;;5032499;28;20267;-77
2022/05/18 11:42:52;;;;;;;5.30;1.73;;;;;;;;;;5032670;28;20189;-76
2022/05/18 11:45:39;;;;;;;2.03;1.70;;;;;;;;;;5030822;28;20236;-76
2022/05/18 11:48:28;;;;;;;2.00;1.90;;;;;;;;;;5031045;28;20205;-76
2022/05/18 11:50:58;;;;;;;2.40;2.00;;;;;;;;;;5023390;28;20223;-75
2022/05/18 11:53:43;;;;;;;3.10;2.00;;;;;;;;;;5027258;28;20218;-76
2022/05/18 11:56:24;;;;;;;5.73;4.73;;;;;;;;;;5031715;28;20237;-76
2022/05/18 12:02:05;;;;;;;6.67;1.90;;;;;;;;;;5031685;28;20192;-76
2022/05/18 12:04:44;;;;;;;3.70;1.77;;;;;;;;;;5030754;28;20276;-76
2022/05/18 12:07:10;;;;;;;3.40;1.60;;;;;;;;;;5030874;28;20186;-76
2022/05/18 12:09:48;;;;;;;3.83;1.80;;;;;;;;;;5030988;28;20726;-76
2022/05/18 12:12:14;;;;;;;2.00;1.80;;;;;;;;;;5031345;28;20187;-76
2022/05/18 12:15:13;;;;;;;3.50;1.60;;;;;;;;;;5030143;28;20530;-76
2022/05/18 12:17:58;;;;;;;2.23;1.80;;;;;;;;;;5019352;28;20987;-76
2022/05/18 12:20:42;;;;;;;2.00;1.80;;;;;;;;;;5030607;28;20189;-76
2022/05/18 12:23:11;;;;;;;1.87;1.50;;;;;;;;;;5031559;28;20187;-76
2022/05/18 12:25:38;;;;;;;2.20;1.50;;;;;;;;;;5027168;28;20233;-76
2022/05/18 12:28:05;;;;;;;1.57;1.47;;;;;;;;;;5029762;28;20209;-76
2022/05/18 12:30:33;;;;;;;1.87;1.40;;;;;;;;;;5028090;28;20625;-76
2022/05/18 12:33:01;;;;;;;3.57;1.50;;;;;;;;;;5027093;28;20200;-76
2022/05/18 12:35:46;;;;;;;2.27;1.50;;;;;;;;;;5029385;28;20258;-76
2022/05/18 12:38:21;;;;;;;1.73;1.50;;;;;;;;;;5031492;28;20641;-77
2022/05/18 12:40:51;;;;;;;1.83;1.40;;;;;;;;;;5029494;28;20564;-77
2022/05/18 12:43:20;;;;;;;2.30;1.53;;;;;;;;;;5029154;28;20196;-77
2022/05/18 12:45:48;;;;;;;1.60;1.50;;;;;;;;;;5030087;28;20598;-77
2022/05/18 12:48:14;;;;;;;2.03;1.47;;;;;;;;;;5029435;28;20216;-77
2022/05/18 12:50:43;;;;;;;1.67;1.47;;;;;;;;;;5029706;28;20292;-77
2022/05/18 12:53:19;;;;;;;2.63;1.60;;;;;;;;;;5031001;28;20168;-77
2022/05/18 12:55:54;;;;;;;2.20;1.47;;;;;;;;;;5028987;28;20184;-77
2022/05/18 12:58:28;;;;;;;1.67;1.30;;;;;;;;;;5028278;28;20215;-77
2022/05/18 13:01:08;;;;;;;2.43;1.40;;;;;;;;;;5028988;28;20209;-77
2022/05/18 13:03:42;;;;;;;1.60;1.50;;;;;;;;;;5030731;28;20194;-77
2022/05/18 13:06:31;;;;;;;2.58;1.40;;;;;;;;;;5029789;28;20525;-77
2022/05/18 13:09:00;;;;;;;2.40;1.50;;;;;;;;;;5010706;28;20263;-77
2022/05/18 13:11:28;;;;;;;2.50;1.60;;;;;;;;;;5030422;28;20204;-77
2022/05/18 13:14:01;;;;;;;1.60;1.40;;;;;;;;;;5029608;28;20221;-77
2022/05/18 13:16:37;;;;;;;2.33;1.50;;;;;;;;;;5029710;28;20606;-77
2022/05/18 13:19:14;;;;;;;1.60;1.38;;;;;;;;;;5027071;28;20553;-77
2022/05/18 13:21:44;;;;;;;1.85;1.27;;;;;;;;;;5027067;28;20631;-77
2022/05/18 13:24:12;;;;;;;1.77;1.35;;;;;;;;;;5029566;28;20190;-77
2022/05/18 13:26:49;;;;;;;1.75;1.30;;;;;;;;;;5028578;28;20194;-77
2022/05/18 13:29:16;;;;;;;1.75;1.40;;;;;;;;;;5029341;28;20234;-77
2022/05/18 13:31:42;;;;;;;1.88;1.55;;;;;;;;;;5029842;28;20245;-77
2022/05/18 13:34:11;;;;;;;1.58;1.45;;;;;;;;;;5027993;28;20570;-77
2022/05/18 13:36:38;;;;;;;2.08;1.55;;;;;;;;;;5023954;28;20193;-78
2022/05/18 13:39:06;;;;;;;1.65;1.40;;;;;;;;;;5023011;28;20209;-77
2022/05/18 13:41:33;;;;;;;1.92;1.60;;;;;;;;;;5027167;28;20586;-77
2022/05/18 13:44:02;;;;;;;1.50;1.40;;;;;;;;;;5027571;28;20190;-77
2022/05/18 13:46:29;;;;;;;1.90;1.70;;;;;;;;;;5029813;28;20187;-77
2022/05/18 13:49:10;;;;;;;2.00;1.38;;;;;;;;;;5027261;28;20213;-77
2022/05/18 13:51:40;;;;;;;4.30;1.45;;;;;;;;;;5027305;28;20199;-77
2022/05/18 13:54:08;;;;;;;2.53;1.30;;;;;;;;;;5024428;28;20275;-77
2022/05/18 13:56:37;;;;;;;1.83;1.40;;;;;;;;;;5027040;28;20269;-77
2022/05/18 13:59:15;;;;;;;2.20;1.40;;;;;;;;;;5025783;28;20700;-77
2022/05/18 14:01:45;;;;;;;1.80;1.50;;;;;;;;;;5027587;28;20197;-77
2022/05/18 14:04:19;;;;;;;1.58;1.48;;;;;;;;;;5028604;28;20182;-77
2022/05/18 14:06:49;;;;;;;2.15;1.50;;;;;;;;;;5027406;28;20194;-77
2022/05/18 14:09:21;;;;;;;2.00;1.30;;;;;;;;;;5027385;28;20216;-77
2022/05/18 14:11:47;;;;;;;1.88;1.30;;;;;;;;;;5028416;28;20228;-77
2022/05/18 14:14:14;;;;;;;1.85;1.33;;;;;;;;;;5027540;28;20193;-77
2022/05/18 14:16:44;;;;;;;1.50;1.30;;;;;;;;;;5028243;28;20539;-77
2022/05/18 14:19:13;;;;;;;2.70;1.40;;;;;;;;;;5027421;28;20226;-77
2022/05/18 14:21:41;;;;;;;1.13;1.02;;;;;;;;;;5025512;28;20680;-77
2022/05/18 14:24:11;;;;;;;2.17;1.35;;;;;;;;;;5026866;28;20476;-77
2022/05/18 14:26:44;;;;;;;3.38;1.40;;;;;;;;;;5024800;28;20189;-77
2022/05/18 14:29:12;;;;;;;1.40;1.30;;;;;;;;;;5026539;28;20205;-77
2022/05/18 14:31:51;;;;;;;1.65;1.30;;;;;;;;;;5026090;28;20190;-77
2022/05/18 14:34:19;;;;;;;1.73;1.20;;;;;;;;;;5026768;28;20197;-77
2022/05/18 14:36:57;;;;;;;1.45;1.33;;;;;;;;;;5024376;28;20269;-77
2022/05/18 14:39:29;;;;;;;1.55;1.30;;;;;;;;;;5019082;28;20205;-77
2022/05/18 14:41:56;;;;;;;2.50;1.60;;;;;;;;;;5024119;28;20266;-78
2022/05/18 14:44:25;;;;;;;2.53;1.52;;;;;;;;;;5028514;28;20396;-77
2022/05/18 14:46:53;;;;;;;1.98;1.50;;;;;;;;;;5028880;28;20261;-77
2022/05/18 14:49:23;;;;;;;2.55;1.48;;;;;;;;;;5027893;28;20264;-77
2022/05/18 14:51:56;;;;;;;1.95;1.60;;;;;;;;;;5019694;28;20556;-77
2022/05/18 14:54:26;;;;;;;2.45;1.40;;;;;;;;;;5027100;28;20213;-77
2022/05/18 14:56:55;;;;;;;1.90;1.50;;;;;;;;;;5025285;28;20174;-77
2022/05/18 14:59:21;;;;;;;1.67;1.50;;;;;;;;;;5023495;28;20697;-77
2022/05/18 15:01:50;;;;;;;1.40;1.30;;;;;;;;;;5025508;28;20188;-77
2022/05/18 15:04:22;;;;;;;1.50;1.33;;;;;;;;;;5026643;28;20197;-77
2022/05/18 15:06:50;;;;;;;1.50;1.40;;;;;;;;;;5027502;28;20224;-76
2022/05/18 15:09:19;;;;;;;2.45;1.55;;;;;;;;;;5025590;28;20626;-76
2022/05/18 15:11:48;;;;;;;3.28;1.40;;;;;;;;;;5025423;28;20182;-76
2022/05/18 15:14:18;;;;;;;2.17;1.45;;;;;;;;;;5026495;28;20892;-76